Time;durP1;ratioP1;P1;durP2;ratioP2;P2;SDS_P1;SDS_P2;PMS_P1;PMS_P2;Temp;Humidity;BMP_temperature;BMP_pressure;BME280_temperature;BME280_humidity;BME280_pressure;Samples;Min_cycle;Max_cycle;Signal;HPM_P1;HPM_P2
2023/06/29 10:55:56;;;;;;;1.55;0.60;;;;;;;;;;10215700;29;19918;-87
2023/06/29 11:01:03;;;;;;;1.45;0.85;;;;;;;;;;10195500;29;20058;-87
2023/06/29 11:06:07;;;;;;;0.93;0.70;;;;;;;;;;10214950;28;20062;-88
2023/06/29 11:11:15;;;;;;;1.50;0.80;;;;;;;;;;10221270;28;20067;-88
2023/06/29 11:16:24;;;;;;;2.70;1.35;;;;;;;;;;10220902;29;20055;-88
2023/06/29 11:21:28;;;;;;;1.85;0.80;;;;;;;;;;10219132;28;20047;-88
2023/06/29 11:26:33;;;;;;;2.13;1.00;;;;;;;;;;10198620;28;20055;-88
2023/06/29 11:31:37;;;;;;;2.03;1.20;;;;;;;;;;10227589;28;20265;-92
2023/06/29 11:36:40;;;;;;;2.13;1.10;;;;;;;;;;10234708;28;20055;-91
2023/06/29 11:41:48;;;;;;;1.90;1.05;;;;;;;;;;10214203;28;20066;-90
2023/06/29 11:46:56;;;;;;;2.05;1.17;;;;;;;;;;10208501;29;20461;-90
2023/06/29 11:52:03;;;;;;;2.58;1.20;;;;;;;;;;10203364;28;20054;-89
2023/06/29 11:57:09;;;;;;;1.65;1.10;;;;;;;;;;10208598;29;20046;-90
2023/06/29 12:02:15;;;;;;;1.70;1.17;;;;;;;;;;10203103;28;20062;-90
2023/06/29 12:07:34;;;;;;;2.38;1.27;;;;;;;;;;10195544;28;20051;-89
2023/06/29 12:12:41;;;;;;;3.25;1.45;;;;;;;;;;10223222;28;20062;-89
2023/06/29 12:17:46;;;;;;;2.00;1.25;;;;;;;;;;10211426;28;20059;-90
2023/06/29 12:22:54;;;;;;;2.67;1.58;;;;;;;;;;10223927;28;20066;-89
2023/06/29 12:28:01;;;;;;;2.63;1.57;;;;;;;;;;10212159;28;20040;-89
2023/06/29 12:33:05;;;;;;;3.33;1.90;;;;;;;;;;10215481;28;20502;-88
2023/06/29 12:38:11;;;;;;;3.70;2.40;;;;;;;;;;10226574;29;21129;-88
2023/06/29 12:43:16;;;;;;;2.78;2.30;;;;;;;;;;10228994;28;20126;-88
2023/06/29 12:48:20;;;;;;;2.83;2.00;;;;;;;;;;10230320;28;20063;-88
2023/06/29 12:53:24;;;;;;;3.92;2.33;;;;;;;;;;10200535;28;20055;-89
2023/06/29 12:58:30;;;;;;;3.92;3.25;;;;;;;;;;10221682;29;20044;-88
2023/06/29 13:03:34;;;;;;;4.28;2.88;;;;;;;;;;10221182;28;20047;-88
2023/06/29 13:08:38;;;;;;;3.80;2.25;;;;;;;;;;10234532;28;20047;-89
2023/06/29 13:13:44;;;;;;;5.27;3.13;;;;;;;;;;10216873;28;20058;-89
2023/06/29 13:18:47;;;;;;;4.17;2.60;;;;;;;;;;10215123;29;20071;-89
2023/06/29 13:23:50;;;;;;;3.22;2.13;;;;;;;;;;10206509;29;20601;-89
2023/06/29 13:28:55;;;;;;;3.35;1.98;;;;;;;;;;10226983;28;20063;-88
2023/06/29 13:33:59;;;;;;;3.20;1.87;;;;;;;;;;10208447;29;20079;-87
2023/06/29 13:39:02;;;;;;;2.60;2.00;;;;;;;;;;10207716;29;20333;-87
2023/06/29 13:44:11;;;;;;;4.38;2.92;;;;;;;;;;10223117;28;20059;-88
2023/06/29 13:49:15;;;;;;;3.30;2.38;;;;;;;;;;10220986;28;20051;-88
2023/06/29 13:54:19;;;;;;;4.23;2.50;;;;;;;;;;10203512;28;20119;-86
2023/06/29 13:59:24;;;;;;;4.38;2.67;;;;;;;;;;10205924;29;20107;-87
2023/06/29 14:04:27;;;;;;;;;;;;;;;;;;10196020;29;20558;-88
2023/06/29 14:09:31;;;;;;;3.80;2.55;;;;;;;;;;10226359;28;19922;-88
2023/06/29 14:14:37;;;;;;;2.88;2.45;;;;;;;;;;10228761;28;20059;-89
2023/06/29 14:19:40;;;;;;;;;;;;;;;;;;10224162;29;20078;-89
2023/06/29 14:24:44;;;;;;;1.98;1.70;;;;;;;;;;10223386;28;19933;-88
2023/06/29 14:29:49;;;;;;;2.20;1.85;;;;;;;;;;10207193;28;20055;-88
2023/06/29 14:34:52;;;;;;;2.72;2.20;;;;;;;;;;10230861;28;20055;-88
2023/06/29 14:39:56;;;;;;;3.72;2.70;;;;;;;;;;10216475;28;20096;-88
2023/06/29 14:45:00;;;;;;;5.28;3.33;;;;;;;;;;10199522;28;20076;-89
2023/06/29 14:50:05;;;;;;;3.70;2.65;;;;;;;;;;10231195;28;20050;-88
2023/06/29 14:55:08;;;;;;;4.18;3.17;;;;;;;;;;10215316;28;20071;-89
2023/06/29 15:00:16;;;;;;;5.57;4.00;;;;;;;;;;10194736;28;20127;-88
2023/06/29 15:05:20;;;;;;;7.10;4.18;;;;;;;;;;10221071;28;20677;-89
2023/06/29 15:10:23;;;;;;;5.43;3.38;;;;;;;;;;10240156;29;20098;-88
2023/06/29 15:15:28;;;;;;;3.78;2.45;;;;;;;;;;10222312;28;20048;-89
2023/06/29 15:20:32;;;;;;;2.65;2.05;;;;;;;;;;10210780;29;20043;-89
2023/06/29 15:25:39;;;;;;;3.22;2.38;;;;;;;;;;10206502;28;20755;-89
2023/06/29 15:30:47;;;;;;;2.83;2.17;;;;;;;;;;10210173;28;20135;-89
2023/06/29 15:35:54;;;;;;;2.15;1.60;;;;;;;;;;10224127;28;20055;-90
2023/06/29 15:40:58;;;;;;;2.75;1.65;;;;;;;;;;10211289;28;20051;-90
2023/06/29 15:46:04;;;;;;;3.50;2.00;;;;;;;;;;10218108;28;20511;-88
2023/06/29 15:51:17;;;;;;;3.00;1.85;;;;;;;;;;10214966;28;20050;-89
2023/06/29 15:56:21;;;;;;;4.43;2.72;;;;;;;;;;10235166;28;20052;-87
2023/06/29 16:01:26;;;;;;;4.70;2.95;;;;;;;;;;10218878;28;20052;-89
2023/06/29 16:06:31;;;;;;;2.13;1.92;;;;;;;;;;10220227;29;20047;-89
2023/06/29 16:11:34;;;;;;;2.42;1.73;;;;;;;;;;10226120;29;20075;-89
2023/06/29 16:16:41;;;;;;;3.83;2.38;;;;;;;;;;10214841;29;20100;-88
2023/06/29 16:21:45;;;;;;;6.30;2.58;;;;;;;;;;10237774;28;20048;-89
2023/06/29 16:26:51;;;;;;;3.25;2.35;;;;;;;;;;10223712;28;20507;-89
2023/06/29 16:31:56;;;;;;;3.10;2.00;;;;;;;;;;10224040;29;20194;-89
2023/06/29 16:37:00;;;;;;;3.92;2.65;;;;;;;;;;10229872;23;20058;-88
2023/06/29 16:42:06;;;;;;;2.85;1.63;;;;;;;;;;10210561;28;20084;-89
2023/06/29 16:47:23;;;;;;;1.90;0.98;;;;;;;;;;10211152;29;20048;-89
2023/06/29 16:52:31;;;;;;;4.00;2.63;;;;;;;;;;10194983;29;20108;-88
2023/06/29 16:57:37;;;;;;;2.63;1.80;;;;;;;;;;10210745;29;20055;-88
2023/06/29 17:02:42;;;;;;;3.15;1.80;;;;;;;;;;10211076;29;20516;-89
2023/06/29 17:07:48;;;;;;;3.15;2.13;;;;;;;;;;10193839;29;20060;-88
2023/06/29 17:13:02;;;;;;;1.77;1.48;;;;;;;;;;10184914;29;20128;-89
2023/06/29 17:18:25;;;;;;;3.30;1.60;;;;;;;;;;10225812;28;20456;-89
2023/06/29 17:23:33;;;;;;;1.75;1.30;;;;;;;;;;10209644;29;20051;-89
2023/06/29 17:28:39;;;;;;;2.78;1.60;;;;;;;;;;10210769;29;20047;-88
2023/06/29 17:33:54;;;;;;;3.17;1.80;;;;;;;;;;10210878;29;20230;-89
2023/06/29 17:38:58;;;;;;;1.25;1.15;;;;;;;;;;10210151;29;20068;-90
2023/06/29 17:44:01;;;;;;;2.88;1.02;;;;;;;;;;10192557;29;20052;-89
2023/06/29 17:49:06;;;;;;;1.25;1.13;;;;;;;;;;10192560;29;20048;-89
2023/06/29 17:54:09;;;;;;;6.07;1.20;;;;;;;;;;10208511;29;20111;-89
2023/06/29 17:59:12;;;;;;;2.50;1.13;;;;;;;;;;10209255;29;20517;-89
2023/06/29 18:04:19;;;;;;;1.48;1.00;;;;;;;;;;10192617;29;20051;-88
2023/06/29 18:09:22;;;;;;;1.13;0.80;;;;;;;;;;10192484;29;20135;-89
2023/06/29 18:14:25;;;;;;;1.48;1.13;;;;;;;;;;10191236;29;20112;-88
2023/06/29 18:19:30;;;;;;;2.17;0.90;;;;;;;;;;10207294;29;20074;-89
2023/06/29 18:24:34;;;;;;;2.07;1.27;;;;;;;;;;10207343;29;20063;-89
2023/06/29 18:29:37;;;;;;;2.47;1.30;;;;;;;;;;10207743;29;20051;-90
2023/06/29 18:34:42;;;;;;;3.03;1.40;;;;;;;;;;10208331;29;20067;-89
2023/06/29 18:39:45;;;;;;;1.47;1.00;;;;;;;;;;10206934;29;20185;-90
2023/06/29 18:44:49;;;;;;;2.28;1.10;;;;;;;;;;10191351;29;20055;-89
2023/06/29 18:49:54;;;;;;;2.10;1.20;;;;;;;;;;10206204;29;20406;-90
2023/06/29 18:54:58;;;;;;;1.38;0.98;;;;;;;;;;10207157;29;20055;-89
2023/06/29 19:00:01;;;;;;;1.50;1.00;;;;;;;;;;10207630;29;20082;-89
2023/06/29 19:05:07;;;;;;;1.85;1.05;;;;;;;;;;10206718;29;20066;-90
2023/06/29 19:10:11;;;;;;;1.08;0.95;;;;;;;;;;10206804;29;20255;-89
2023/06/29 19:15:16;;;;;;;1.70;1.20;;;;;;;;;;10206306;29;20104;-89
2023/06/29 19:20:21;;;;;;;2.70;1.20;;;;;;;;;;10188788;29;20056;-89
2023/06/29 19:25:25;;;;;;;4.40;1.40;;;;;;;;;;10187514;29;20134;-89
2023/06/29 19:30:28;;;;;;;1.25;0.95;;;;;;;;;;10203903;29;20475;-89
2023/06/29 19:35:33;;;;;;;2.35;1.23;;;;;;;;;;10204978;29;20074;-88
2023/06/29 19:40:36;;;;;;;1.13;0.95;;;;;;;;;;10206227;29;20130;-89
2023/06/29 19:45:39;;;;;;;2.10;1.05;;;;;;;;;;10206412;29;20099;-89
2023/06/29 19:50:44;;;;;;;1.98;1.38;;;;;;;;;;10188699;29;20051;-88
2023/06/29 19:55:48;;;;;;;2.42;1.55;;;;;;;;;;10188531;29;20055;-88
2023/06/29 20:03:54;;;;;;;1.73;1.33;;;;;;;;;;10547580;27;20357;-83
2023/06/29 20:08:58;;;;;;;2.00;1.30;;;;;;;;;;10505693;28;20044;-83
2023/06/29 20:14:01;;;;;;;6.45;1.38;;;;;;;;;;10517039;28;20043;-85
2023/06/29 20:19:06;;;;;;;3.85;1.50;;;;;;;;;;10541772;28;20061;-85
2023/06/29 20:24:10;;;;;;;4.97;1.50;;;;;;;;;;10520220;28;20044;-85
2023/06/29 20:29:14;;;;;;;2.38;1.40;;;;;;;;;;10521589;28;20044;-84
2023/06/29 20:34:19;;;;;;;2.47;1.33;;;;;;;;;;10521241;28;20050;-86
2023/06/29 20:39:23;;;;;;;4.32;1.50;;;;;;;;;;10529849;28;20518;-85
2023/06/29 20:44:32;;;;;;;2.40;1.50;;;;;;;;;;10513728;28;20048;-85
2023/06/29 20:49:36;;;;;;;2.28;1.40;;;;;;;;;;10545829;28;20031;-86
2023/06/29 20:54:40;;;;;;;1.30;1.17;;;;;;;;;;10518716;28;20159;-87
2023/06/29 20:59:43;;;;;;;2.42;1.30;;;;;;;;;;10537493;28;20572;-85
2023/06/29 21:04:48;;;;;;;1.98;1.25;;;;;;;;;;10521073;28;21544;-86
2023/06/29 21:09:51;;;;;;;3.15;1.30;;;;;;;;;;10534219;28;20561;-86
2023/06/29 21:14:58;;;;;;;2.13;1.23;;;;;;;;;;10515563;28;20101;-85
2023/06/29 21:20:04;;;;;;;2.38;1.70;;;;;;;;;;10509797;28;20265;-86
2023/06/29 21:25:09;;;;;;;2.60;1.20;;;;;;;;;;10503228;28;20127;-86
2023/06/29 21:30:14;;;;;;;2.15;1.30;;;;;;;;;;10518481;28;20139;-86
2023/06/29 21:35:20;;;;;;;1.40;1.27;;;;;;;;;;10492245;28;20060;-85
2023/06/29 21:40:23;;;;;;;1.63;1.30;;;;;;;;;;10506726;28;20139;-85
2023/06/29 21:45:27;;;;;;;2.28;2.03;;;;;;;;;;10513806;28;20875;-86
2023/06/29 21:50:33;;;;;;;1.88;1.50;;;;;;;;;;10506690;28;20055;-86
2023/06/29 21:55:36;;;;;;;1.85;1.40;;;;;;;;;;10499529;28;20064;-86
2023/06/29 22:00:40;;;;;;;2.20;1.30;;;;;;;;;;10492070;28;20452;-86
2023/06/29 22:05:46;;;;;;;1.92;1.40;;;;;;;;;;10501368;28;20493;-85
2023/06/29 22:10:50;;;;;;;;;;;;;;;;;;10485385;28;20497;-83
2023/06/29 22:15:54;;;;;;;1.20;1.08;;;;;;;;;;10500175;28;20707;-83
2023/06/29 22:20:58;;;;;;;1.90;1.17;;;;;;;;;;10509883;28;20056;-83
2023/06/29 22:26:01;;;;;;;2.25;1.63;;;;;;;;;;10497372;28;20131;-84
2023/06/29 22:31:05;;;;;;;1.83;1.10;;;;;;;;;;10519884;28;20051;-85
2023/06/29 22:36:10;;;;;;;1.77;1.15;;;;;;;;;;10490541;28;20037;-84
2023/06/29 22:41:14;;;;;;;2.03;1.23;;;;;;;;;;10486057;28;20040;-84
2023/06/29 22:46:17;;;;;;;2.00;1.45;;;;;;;;;;10503788;28;20040;-85
2023/06/29 22:51:24;;;;;;;2.17;1.52;;;;;;;;;;10489649;28;20119;-85
2023/06/29 22:56:27;;;;;;;2.13;1.30;;;;;;;;;;10495246;28;20048;-85
2023/06/29 23:01:30;;;;;;;2.83;1.30;;;;;;;;;;10485899;28;20123;-86
2023/06/29 23:06:38;;;;;;;3.03;1.63;;;;;;;;;;10492519;28;20071;-86
2023/06/29 23:11:41;;;;;;;2.95;1.30;;;;;;;;;;10478805;28;20048;-87
2023/06/29 23:16:46;;;;;;;3.63;1.65;;;;;;;;;;10482560;28;20468;-86
2023/06/29 23:21:52;;;;;;;4.07;1.90;;;;;;;;;;10502429;28;20135;-85
2023/06/29 23:26:55;;;;;;;3.42;2.00;;;;;;;;;;10476134;28;20036;-85
2023/06/29 23:31:59;;;;;;;4.00;2.10;;;;;;;;;;10509531;28;20127;-88
2023/06/29 23:37:03;;;;;;;4.18;2.42;;;;;;;;;;10484446;28;20746;-88
2023/06/29 23:42:08;;;;;;;3.45;2.47;;;;;;;;;;10477051;28;20042;-88
2023/06/29 23:47:12;;;;;;;4.43;2.60;;;;;;;;;;10484985;28;20068;-88
2023/06/29 23:52:17;;;;;;;4.28;2.65;;;;;;;;;;10508013;28;20044;-88
2023/06/29 23:57:20;;;;;;;3.63;2.42;;;;;;;;;;10476752;28;20123;-90
